Time;durP1;ratioP1;P1;durP2;ratioP2;P2;SDS_P1;SDS_P2;PMS_P1;PMS_P2;Temp;Humidity;BMP_temperature;BMP_pressure;BME280_temperature;BME280_humidity;BME280_pressure;Samples;Min_cycle;Max_cycle;Signal;HPM_P1;HPM_P2
2022/01/21 00:01:07;;;;;;;0.20;0.20;;;-0.80;99.90;;;;;;5085840;28;20246;-80
2022/01/21 00:03:34;;;;;;;0.20;0.20;;;-0.80;99.90;;;;;;5097367;28;20229;-81
2022/01/21 00:06:02;;;;;;;0.20;0.20;;;-0.80;99.90;;;;;;5091046;28;20226;-80
2022/01/21 00:08:29;;;;;;;0.20;0.20;;;-0.80;99.90;;;;;;5094278;28;20201;-80
2022/01/21 00:10:56;;;;;;;0.10;0.10;;;-0.80;99.90;;;;;;5088622;28;20247;-80
2022/01/21 00:13:33;;;;;;;0.20;0.20;;;-0.90;99.90;;;;;;5089615;28;20243;-80
2022/01/21 00:16:00;;;;;;;0.20;0.20;;;-0.90;99.90;;;;;;5086045;28;20249;-80
2022/01/21 00:18:28;;;;;;;0.10;0.10;;;-0.90;99.90;;;;;;5090771;28;20267;-80
2022/01/21 00:32:07;;;;;;;0.10;0.10;;;-0.90;99.90;;;;;;4995197;28;20292;-80
2022/01/21 00:34:36;;;;;;;0.20;0.20;;;-1.00;99.90;;;;;;5056997;28;20211;-80
2022/01/21 00:37:04;;;;;;;0.20;0.20;;;-1.00;99.90;;;;;;5088012;28;20270;-80
2022/01/21 00:39:33;;;;;;;0.15;0.15;;;-1.00;99.90;;;;;;5086940;28;20208;-80
2022/01/21 00:42:08;;;;;;;0.20;0.20;;;-1.00;99.90;;;;;;5083888;28;20206;-79
2022/01/21 00:44:35;;;;;;;0.20;0.20;;;-1.00;99.90;;;;;;5093594;28;20209;-79
2022/01/21 00:47:03;;;;;;;0.20;0.20;;;-1.00;99.90;;;;;;5083337;28;20194;-81
2022/01/21 00:49:30;;;;;;;0.17;0.17;;;-1.00;99.90;;;;;;5096143;28;20213;-80
2022/01/21 00:51:58;;;;;;;0.20;0.20;;;-1.00;99.90;;;;;;5092270;28;20191;-80
2022/01/21 00:54:26;;;;;;;0.10;0.10;;;-1.00;99.90;;;;;;5083502;28;20244;-80
2022/01/21 00:56:52;;;;;;;0.17;0.17;;;-1.00;99.90;;;;;;5088640;28;20849;-80
2022/01/21 00:59:19;;;;;;;0.10;0.10;;;-1.00;99.90;;;;;;5082214;28;20202;-81
2022/01/21 01:01:46;;;;;;;0.20;0.20;;;-1.00;99.90;;;;;;5090739;28;20220;-79
2022/01/21 01:04:13;;;;;;;0.20;0.20;;;-1.00;99.90;;;;;;5089296;28;20271;-80
2022/01/21 01:06:41;;;;;;;0.20;0.20;;;-1.00;99.90;;;;;;5082416;28;20248;-80
2022/01/21 01:09:09;;;;;;;0.20;0.20;;;-1.00;99.90;;;;;;5089899;28;20217;-80
2022/01/21 01:11:50;;;;;;;0.20;0.20;;;-1.00;99.90;;;;;;5086580;28;20194;-81
2022/01/21 01:19:57;;;;;;;0.20;0.20;;;-1.00;99.90;;;;;;5085832;28;20237;-80
2022/01/21 01:22:32;;;;;;;0.20;0.20;;;-1.00;99.90;;;;;;5088622;28;20193;-80
2022/01/21 01:27:46;;;;;;;0.20;0.20;;;-1.00;99.90;;;;;;5091663;28;20204;-80
2022/01/21 01:30:15;;;;;;;0.20;0.20;;;-1.00;99.90;;;;;;5085865;28;20209;-79
2022/01/21 01:32:46;;;;;;;0.20;0.20;;;-1.00;99.90;;;;;;5091735;28;20204;-80
2022/01/21 01:35:16;;;;;;;0.20;0.20;;;-1.00;99.90;;;;;;5085077;28;20278;-79
2022/01/21 01:40:33;;;;;;;0.20;0.20;;;-1.00;99.90;;;;;;5080218;28;20197;-79
2022/01/21 01:51:25;;;;;;;0.20;0.20;;;-1.10;99.90;;;;;;5082021;28;20189;-78
2022/01/21 01:53:54;;;;;;;0.20;0.20;;;-1.10;99.90;;;;;;5080978;28;20218;-79
2022/01/21 01:56:26;;;;;;;0.20;0.20;;;-1.10;99.90;;;;;;5078749;28;20214;-79
2022/01/21 01:58:53;;;;;;;0.20;0.20;;;-1.10;99.90;;;;;;5083328;28;20214;-79
2022/01/21 02:01:21;;;;;;;0.20;0.20;;;-1.10;99.90;;;;;;5080643;28;20206;-79
2022/01/21 02:03:48;;;;;;;0.20;0.20;;;-1.10;99.90;;;;;;5081758;28;20234;-79
2022/01/21 02:06:15;;;;;;;0.20;0.20;;;-1.10;99.90;;;;;;5079297;28;20221;-80
2022/01/21 02:08:42;;;;;;;0.20;0.20;;;-1.10;99.90;;;;;;5079042;28;20186;-80
2022/01/21 02:11:09;;;;;;;0.20;0.20;;;-1.10;99.90;;;;;;5076754;28;20206;-79
2022/01/21 02:13:43;;;;;;;0.20;0.20;;;-1.10;99.90;;;;;;5085474;28;20202;-79
2022/01/21 02:16:19;;;;;;;0.20;0.20;;;-1.10;99.90;;;;;;5080415;28;20233;-80
2022/01/21 02:21:35;;;;;;;0.20;0.20;;;-1.10;99.90;;;;;;5075401;28;20198;-79
2022/01/21 02:24:05;;;;;;;0.20;0.20;;;;;;;;;;5077733;28;20206;-79
2022/01/21 02:26:32;;;;;;;0.20;0.20;;;-1.10;99.90;;;;;;5087764;28;20202;-81
2022/01/21 02:29:01;;;;;;;0.20;0.20;;;-1.10;99.90;;;;;;5083212;28;20197;-81
2022/01/21 02:31:29;;;;;;;0.20;0.20;;;-1.20;99.90;;;;;;5084618;28;20254;-80
2022/01/21 02:33:57;;;;;;;0.20;0.20;;;-1.20;99.90;;;;;;5082076;28;20216;-80
2022/01/21 02:36:25;;;;;;;0.20;0.20;;;-1.20;99.90;;;;;;5082030;28;20199;-80
2022/01/21 02:38:53;;;;;;;0.20;0.20;;;-1.20;99.90;;;;;;5086761;28;20236;-80
2022/01/21 02:41:21;;;;;;;0.20;0.20;;;-1.20;99.90;;;;;;5079882;28;20200;-81
2022/01/21 02:43:48;;;;;;;0.10;0.10;;;-1.20;99.90;;;;;;5085006;28;20189;-80
2022/01/21 02:46:16;;;;;;;0.10;0.10;;;-1.20;99.90;;;;;;5092062;28;20201;-80
2022/01/21 02:48:45;;;;;;;0.10;0.10;;;-1.20;99.90;;;;;;5092923;28;20185;-80
2022/01/21 02:51:13;;;;;;;0.20;0.20;;;-1.20;99.90;;;;;;5081007;28;20205;-80
2022/01/21 02:56:24;;;;;;;0.20;0.20;;;-1.20;99.90;;;;;;5092029;28;20225;-80
2022/01/21 02:58:51;;;;;;;0.20;0.20;;;-1.20;99.90;;;;;;5079932;28;20225;-81
2022/01/21 03:01:19;;;;;;;0.20;0.20;;;-1.20;99.90;;;;;;5086051;28;20206;-79
2022/01/21 03:03:47;;;;;;;0.20;0.20;;;-1.30;99.90;;;;;;5088643;28;20196;-79
2022/01/21 03:06:17;;;;;;;0.20;0.20;;;-1.20;99.90;;;;;;5084081;28;20275;-79
2022/01/21 03:08:46;;;;;;;0.28;0.28;;;-1.30;99.90;;;;;;5081319;28;20313;-80
2022/01/21 03:11:13;;;;;;;0.20;0.20;;;-1.30;99.90;;;;;;5082470;28;20244;-79
2022/01/21 03:13:42;;;;;;;0.20;0.20;;;-1.30;99.90;;;;;;5088039;28;20205;-79
2022/01/21 03:16:10;;;;;;;0.20;0.20;;;-1.30;99.90;;;;;;5082115;28;20236;-81
2022/01/21 03:18:37;;;;;;;0.20;0.20;;;-1.30;99.90;;;;;;5082144;28;20224;-79
2022/01/21 03:21:07;;;;;;;0.20;0.20;;;-1.40;99.90;;;;;;5083577;28;20232;-79
2022/01/21 03:23:34;;;;;;;0.20;0.20;;;-1.40;99.90;;;;;;5077334;28;20206;-79
2022/01/21 03:26:02;;;;;;;0.20;0.20;;;-1.40;99.90;;;;;;5087193;28;20209;-80
2022/01/21 03:28:49;;;;;;;0.20;0.20;;;-1.40;99.90;;;;;;5084192;28;20243;-79
2022/01/21 03:31:16;;;;;;;0.20;0.20;;;-1.40;99.90;;;;;;5088345;28;20235;-80
2022/01/21 03:33:44;;;;;;;0.20;0.20;;;-1.40;99.90;;;;;;5082062;28;20199;-80
2022/01/21 03:36:11;;;;;;;0.20;0.20;;;-1.40;99.90;;;;;;5080647;28;20225;-80
2022/01/21 03:38:39;;;;;;;0.20;0.20;;;-1.40;99.90;;;;;;5084821;28;20209;-79
2022/01/21 03:41:07;;;;;;;0.20;0.20;;;-1.50;99.90;;;;;;5084692;28;20202;-79
2022/01/21 03:43:34;;;;;;;0.10;0.10;;;-1.50;99.90;;;;;;5085028;28;20251;-78
2022/01/21 03:46:04;;;;;;;0.20;0.20;;;-1.40;99.90;;;;;;5088573;28;20217;-79
2022/01/21 03:48:32;;;;;;;0.20;0.20;;;-1.40;99.90;;;;;;5090425;28;20204;-80
2022/01/21 03:51:00;;;;;;;0.20;0.20;;;-1.40;99.90;;;;;;5079414;28;20276;-80
2022/01/21 03:53:27;;;;;;;0.10;0.10;;;-1.40;99.90;;;;;;5084574;28;20288;-80
2022/01/21 03:55:54;;;;;;;0.20;0.20;;;-1.40;99.90;;;;;;5084485;28;20224;-86
2022/01/21 03:58:21;;;;;;;0.20;0.20;;;-1.40;99.90;;;;;;5089733;28;20737;-79
2022/01/21 04:00:52;;;;;;;0.20;0.20;;;-1.40;99.90;;;;;;5087570;28;20200;-80
2022/01/21 04:03:22;;;;;;;0.20;0.20;;;-1.30;99.90;;;;;;5100470;28;20280;-80
2022/01/21 04:05:51;;;;;;;0.20;0.20;;;-1.20;99.90;;;;;;5081057;28;20261;-80
2022/01/21 04:08:19;;;;;;;0.20;0.20;;;-1.20;99.90;;;;;;5087199;28;20194;-80
2022/01/21 04:10:58;;;;;;;0.20;0.20;;;-1.10;99.90;;;;;;5081834;28;20336;-80
2022/01/21 04:13:26;;;;;;;0.15;0.15;;;-1.10;99.90;;;;;;5079976;28;20209;-80
2022/01/21 04:15:59;;;;;;;0.20;0.20;;;-1.10;99.90;;;;;;5084146;28;20286;-80
2022/01/21 04:18:30;;;;;;;0.20;0.20;;;-1.00;99.90;;;;;;5079193;28;20210;-80
2022/01/21 04:21:00;;;;;;;0.20;0.20;;;-1.00;99.90;;;;;;5087799;28;20209;-80
2022/01/21 04:23:28;;;;;;;0.20;0.20;;;-1.00;99.90;;;;;;5082476;28;20234;-80
2022/01/21 04:25:55;;;;;;;0.20;0.20;;;-1.00;99.90;;;;;;5085148;28;20228;-80
2022/01/21 04:28:24;;;;;;;0.20;0.20;;;-1.00;99.90;;;;;;5083079;28;20202;-80
2022/01/21 04:30:53;;;;;;;0.20;0.20;;;-1.00;99.90;;;;;;5092048;28;20674;-81
2022/01/21 04:33:30;;;;;;;0.20;0.20;;;-1.00;99.90;;;;;;5086113;28;20232;-80
2022/01/21 04:36:00;;;;;;;0.10;0.10;;;-1.00;99.90;;;;;;5089328;28;20224;-80
2022/01/21 04:38:29;;;;;;;0.20;0.20;;;-1.00;99.90;;;;;;5089773;28;20218;-79
2022/01/21 04:41:03;;;;;;;0.20;0.20;;;-1.00;99.90;;;;;;5079551;28;20190;-80
2022/01/21 04:49:01;;;;;;;0.10;0.10;;;-1.00;99.90;;;;;;5082329;28;20198;-80
2022/01/21 04:51:29;;;;;;;0.20;0.20;;;-1.00;99.90;;;;;;5095171;28;20224;-80
2022/01/21 04:53:58;;;;;;;0.20;0.20;;;-0.90;99.90;;;;;;5087654;28;20212;-80
2022/01/21 04:56:30;;;;;;;0.13;0.13;;;-0.90;99.90;;;;;;5085833;28;20194;-79
2022/01/21 04:58:57;;;;;;;0.20;0.20;;;-0.90;99.90;;;;;;5081392;28;20233;-80
2022/01/21 05:01:26;;;;;;;0.20;0.20;;;-0.90;99.90;;;;;;5083955;28;20217;-80
2022/01/21 05:03:55;;;;;;;0.20;0.20;;;-0.90;99.90;;;;;;5089344;28;20240;-82
2022/01/21 05:06:25;;;;;;;0.20;0.20;;;-0.90;99.90;;;;;;5091012;28;20206;-81
2022/01/21 05:08:54;;;;;;;0.20;0.20;;;-0.90;99.90;;;;;;5083002;28;20198;-82
2022/01/21 05:11:22;;;;;;;0.20;0.20;;;-0.80;99.90;;;;;;5081407;28;20226;-82
2022/01/21 05:13:56;;;;;;;0.15;0.15;;;-0.80;99.90;;;;;;5089181;28;20213;-81
2022/01/21 05:16:33;;;;;;;0.20;0.20;;;-0.80;99.90;;;;;;5082732;28;20255;-82
2022/01/21 05:19:04;;;;;;;0.20;0.20;;;-0.80;99.90;;;;;;5086337;28;20224;-81
2022/01/21 05:21:51;;;;;;;0.20;0.20;;;-0.80;99.90;;;;;;5086288;28;20231;-83
2022/01/21 05:24:25;;;;;;;0.20;0.20;;;-0.70;99.90;;;;;;5109781;27;20279;-84
2022/01/21 05:26:56;;;;;;;0.20;0.20;;;-0.70;99.90;;;;;;5082924;28;20259;-82
2022/01/21 05:29:32;;;;;;;0.20;0.20;;;-0.70;99.90;;;;;;5089669;28;20197;-81
2022/01/21 05:32:05;;;;;;;0.20;0.20;;;-0.70;99.90;;;;;;5086557;28;20263;-80
2022/01/21 05:34:40;;;;;;;0.20;0.20;;;-0.70;99.90;;;;;;5091649;28;20231;-75
2022/01/21 05:37:31;;;;;;;0.20;0.20;;;-0.70;99.90;;;;;;5093000;28;20213;-80
2022/01/21 05:40:14;;;;;;;0.20;0.20;;;-0.70;99.90;;;;;;5085389;28;20209;-79
2022/01/21 05:42:58;;;;;;;0.20;0.20;;;-0.70;99.90;;;;;;5091190;28;20193;-80
2022/01/21 05:48:29;;;;;;;0.20;0.20;;;-0.70;99.90;;;;;;5089338;28;20185;-79
2022/01/21 05:51:01;;;;;;;0.20;0.20;;;-0.60;99.90;;;;;;5078712;28;20198;-81
2022/01/21 05:53:50;;;;;;;0.20;0.20;;;-0.70;99.90;;;;;;5082838;28;20698;-83
2022/01/21 05:56:31;;;;;;;0.20;0.20;;;-0.60;99.90;;;;;;5075395;28;20202;-82
2022/01/21 05:59:06;;;;;;;0.20;0.20;;;-0.60;99.90;;;;;;5071167;28;20221;-81
2022/01/21 06:01:35;;;;;;;0.20;0.20;;;-0.60;99.90;;;;;;5088199;28;20205;-81
2022/01/21 06:04:02;;;;;;;0.20;0.20;;;-0.60;99.90;;;;;;5084920;28;20208;-81
2022/01/21 06:06:29;;;;;;;0.20;0.20;;;-0.60;99.90;;;;;;5091108;28;20205;-82
2022/01/21 06:09:01;;;;;;;0.20;0.20;;;-0.60;99.90;;;;;;5083352;28;20201;-80
2022/01/21 06:11:29;;;;;;;0.20;0.20;;;-0.60;99.90;;;;;;5083250;28;20200;-83
2022/01/21 06:13:56;;;;;;;0.20;0.20;;;-0.50;99.90;;;;;;5078688;28;20255;-84
2022/01/21 06:16:23;;;;;;;0.20;0.20;;;-0.50;99.90;;;;;;5065787;28;20202;-82
2022/01/21 06:18:50;;;;;;;0.20;0.20;;;-0.40;99.90;;;;;;5073438;28;20237;-81
2022/01/21 06:21:17;;;;;;;0.20;0.20;;;-0.40;99.90;;;;;;5080889;28;20197;-81
2022/01/21 06:23:45;;;;;;;0.20;0.20;;;-0.30;99.90;;;;;;5079962;28;20290;-80
2022/01/21 06:26:13;;;;;;;0.20;0.20;;;-0.30;99.90;;;;;;5090195;28;20221;-82
2022/01/21 06:28:40;;;;;;;0.20;0.20;;;-0.20;99.90;;;;;;5091582;28;20224;-82
2022/01/21 06:31:08;;;;;;;0.20;0.20;;;-0.20;99.90;;;;;;5082498;28;20222;-82
2022/01/21 06:33:35;;;;;;;0.10;0.10;;;-0.10;99.90;;;;;;5084211;28;20281;-82
2022/01/21 06:36:02;;;;;;;0.13;0.13;;;-0.10;99.90;;;;;;5091060;28;20222;-82
2022/01/21 06:38:30;;;;;;;0.20;0.20;;;-0.10;99.90;;;;;;5097523;28;20316;-82
2022/01/21 06:40:57;;;;;;;0.20;0.20;;;0.00;99.90;;;;;;5082609;28;20218;-82
2022/01/21 06:43:26;;;;;;;0.20;0.20;;;0.00;99.90;;;;;;5094537;28;20447;-81
2022/01/21 06:45:53;;;;;;;0.10;0.10;;;0.10;99.90;;;;;;5090604;28;20217;-80
2022/01/21 06:48:21;;;;;;;0.20;0.20;;;0.10;99.90;;;;;;5079486;28;20202;-83
2022/01/21 06:50:51;;;;;;;0.20;0.20;;;0.20;99.90;;;;;;5085082;28;20204;-81
2022/01/21 06:53:19;;;;;;;0.20;0.20;;;0.20;99.90;;;;;;5082244;28;20198;-81
2022/01/21 06:55:50;;;;;;;0.10;0.10;;;0.30;99.90;;;;;;5085159;28;20312;-81
2022/01/21 06:58:18;;;;;;;0.15;0.15;;;0.30;99.90;;;;;;5082406;28;20202;-81
2022/01/21 07:00:47;;;;;;;0.20;0.20;;;0.40;99.90;;;;;;5082158;28;20281;-81
2022/01/21 07:03:17;;;;;;;0.20;0.20;;;0.40;99.90;;;;;;5084897;28;20216;-80
2022/01/21 07:05:46;;;;;;;0.20;0.20;;;0.40;99.90;;;;;;5090381;28;20237;-81
2022/01/21 07:08:16;;;;;;;0.20;0.20;;;0.50;99.90;;;;;;5090264;28;20209;-80
2022/01/21 07:10:44;;;;;;;0.28;0.28;;;0.50;99.90;;;;;;5084177;28;20288;-80
2022/01/21 07:13:12;;;;;;;0.20;0.20;;;0.50;99.90;;;;;;5087604;28;20270;-80
2022/01/21 07:15:39;;;;;;;0.20;0.20;;;0.60;99.90;;;;;;5084099;28;20221;-80
2022/01/21 07:18:08;;;;;;;0.20;0.20;;;0.60;99.90;;;;;;5089330;28;20662;-80
2022/01/21 07:20:35;;;;;;;0.20;0.20;;;0.70;99.90;;;;;;5081381;28;20327;-80
2022/01/21 07:23:02;;;;;;;0.20;0.20;;;0.60;99.90;;;;;;5077690;28;20202;-80
2022/01/21 07:25:29;;;;;;;0.20;0.20;;;0.60;99.90;;;;;;5082494;28;20221;-81
2022/01/21 07:27:56;;;;;;;0.20;0.20;;;0.70;99.90;;;;;;5080219;28;20194;-81
2022/01/21 07:30:24;;;;;;;0.10;0.10;;;0.70;99.90;;;;;;5083639;28;20202;-80
2022/01/21 07:32:51;;;;;;;0.15;0.15;;;0.70;99.90;;;;;;5085113;28;20198;-80
2022/01/21 07:35:19;;;;;;;0.20;0.20;;;0.70;99.90;;;;;;5085225;28;20221;-81
2022/01/21 07:37:46;;;;;;;0.15;0.15;;;0.80;99.90;;;;;;5080871;28;20205;-80
2022/01/21 07:40:14;;;;;;;0.10;0.10;;;0.80;99.90;;;;;;5084771;28;20233;-80
2022/01/21 07:42:41;;;;;;;0.20;0.20;;;0.70;99.90;;;;;;5088232;28;20208;-80
2022/01/21 07:45:09;;;;;;;0.20;0.20;;;0.80;99.90;;;;;;5094449;28;20225;-79
2022/01/21 07:47:36;;;;;;;0.15;0.15;;;0.80;99.90;;;;;;5086541;28;20201;-79
2022/01/21 07:50:05;;;;;;;0.10;0.10;;;0.80;99.90;;;;;;5085395;28;20213;-80
2022/01/21 07:52:33;;;;;;;0.20;0.20;;;0.80;99.90;;;;;;5088368;28;20225;-80
2022/01/21 07:55:00;;;;;;;0.20;0.20;;;0.90;99.90;;;;;;5086175;28;20275;-80
2022/01/21 07:57:27;;;;;;;0.20;0.20;;;0.90;99.90;;;;;;5087634;28;20198;-80
2022/01/21 07:59:55;;;;;;;0.10;0.10;;;0.90;99.90;;;;;;5091898;28;20292;-80
2022/01/21 08:02:24;;;;;;;0.20;0.20;;;0.90;99.90;;;;;;5094202;28;20209;-80
2022/01/21 08:04:51;;;;;;;0.17;0.17;;;0.90;99.90;;;;;;5091802;28;20210;-81
2022/01/21 08:07:18;;;;;;;0.15;0.15;;;0.90;99.90;;;;;;5095347;28;20197;-82
2022/01/21 08:09:48;;;;;;;0.20;0.20;;;0.90;99.90;;;;;;5085339;28;20208;-80
2022/01/21 08:12:16;;;;;;;0.20;0.20;;;0.90;99.90;;;;;;5091946;28;20201;-80
2022/01/21 08:14:44;;;;;;;0.10;0.10;;;1.00;99.90;;;;;;5088670;28;20650;-80
2022/01/21 08:17:11;;;;;;;0.15;0.15;;;1.00;99.90;;;;;;5085444;28;20619;-81
2022/01/21 08:19:38;;;;;;;0.20;0.20;;;1.00;99.90;;;;;;5087753;28;20229;-79
2022/01/21 08:22:05;;;;;;;0.20;0.20;;;1.00;99.90;;;;;;5092216;28;20202;-82
2022/01/21 08:24:33;;;;;;;0.20;0.20;;;1.00;99.90;;;;;;5076517;28;20226;-81
2022/01/21 08:27:01;;;;;;;0.20;0.20;;;1.10;99.90;;;;;;5091574;28;20205;-81
2022/01/21 08:29:30;;;;;;;0.20;0.20;;;1.10;99.90;;;;;;5085348;28;20182;-82
2022/01/21 08:31:59;;;;;;;0.10;0.10;;;1.10;99.90;;;;;;5092428;28;20638;-82
2022/01/21 08:34:29;;;;;;;0.10;0.10;;;1.20;99.90;;;;;;5088361;28;20220;-81
2022/01/21 08:36:57;;;;;;;0.10;0.10;;;1.30;99.90;;;;;;5091336;28;20710;-81
2022/01/21 08:39:24;;;;;;;0.20;0.20;;;1.50;99.90;;;;;;5089994;28;20663;-80
2022/01/21 08:41:51;;;;;;;0.10;0.10;;;1.50;99.90;;;;;;5085937;28;20603;-81
2022/01/21 08:44:20;;;;;;;0.20;0.20;;;1.60;99.90;;;;;;5091974;28;20717;-81
2022/01/21 08:46:48;;;;;;;0.10;0.10;;;1.60;99.90;;;;;;5087974;28;20216;-82
2022/01/21 08:49:19;;;;;;;0.20;0.20;;;1.60;99.90;;;;;;5087175;28;20615;-82
2022/01/21 08:51:51;;;;;;;0.10;0.10;;;1.70;99.90;;;;;;5086537;28;20236;-81
2022/01/21 08:54:20;;;;;;;0.20;0.20;;;1.80;99.90;;;;;;5090406;28;20683;-81
2022/01/21 08:56:50;;;;;;;0.10;0.10;;;1.90;99.90;;;;;;5097330;28;20627;-81
2022/01/21 08:59:20;;;;;;;0.10;0.10;;;1.80;99.90;;;;;;5096825;28;20658;-81
2022/01/21 09:01:49;;;;;;;0.10;0.10;;;1.80;99.90;;;;;;5093760;28;20626;-81
2022/01/21 09:04:16;;;;;;;0.20;0.20;;;1.80;99.90;;;;;;5082891;28;20642;-82
2022/01/21 09:06:46;;;;;;;0.13;0.13;;;1.90;99.90;;;;;;5088699;28;20627;-81
2022/01/21 09:09:15;;;;;;;0.10;0.10;;;1.90;99.90;;;;;;5088385;28;20623;-82
2022/01/21 09:11:43;;;;;;;0.10;0.10;;;1.90;99.90;;;;;;5085566;28;20596;-81
2022/01/21 09:14:12;;;;;;;0.20;0.20;;;1.90;99.90;;;;;;5079889;28;20691;-81
2022/01/21 09:16:42;;;;;;;0.20;0.20;;;2.00;99.90;;;;;;5078485;28;20616;-81
2022/01/21 09:19:13;;;;;;;0.10;0.10;;;2.10;99.90;;;;;;5083897;28;20628;-82
2022/01/21 09:21:42;;;;;;;0.10;0.10;;;2.30;99.90;;;;;;5083615;28;20977;-83
2022/01/21 09:24:11;;;;;;;0.20;0.20;;;2.40;99.90;;;;;;5082120;28;20627;-81
2022/01/21 09:26:38;;;;;;;0.10;0.10;;;2.50;99.90;;;;;;5081637;28;20608;-81
2022/01/21 09:29:06;;;;;;;0.20;0.20;;;2.50;99.90;;;;;;5094013;28;20647;-81
2022/01/21 09:31:35;;;;;;;0.10;0.10;;;2.60;99.90;;;;;;5080963;28;20613;-80
2022/01/21 09:34:03;;;;;;;0.20;0.20;;;2.70;99.90;;;;;;5080458;28;20620;-80
2022/01/21 09:36:31;;;;;;;0.10;0.10;;;2.70;99.90;;;;;;5083679;28;20632;-81
2022/01/21 09:38:58;;;;;;;0.20;0.20;;;2.80;99.90;;;;;;5080753;28;20722;-81
2022/01/21 09:41:25;;;;;;;0.20;0.20;;;2.80;99.90;;;;;;5085329;28;20633;-80
2022/01/21 09:43:54;;;;;;;0.20;0.20;;;2.90;99.90;;;;;;5081388;28;20628;-80
2022/01/21 09:46:25;;;;;;;0.10;0.10;;;2.90;99.90;;;;;;5078392;28;20677;-80
2022/01/21 09:49:05;;;;;;;0.10;0.10;;;3.00;99.90;;;;;;5094068;28;20616;-81
2022/01/21 09:51:35;;;;;;;0.20;0.20;;;3.00;99.90;;;;;;5080312;28;20628;-81
2022/01/21 09:54:02;;;;;;;0.10;0.10;;;3.00;99.90;;;;;;5082174;28;20701;-80
2022/01/21 09:56:30;;;;;;;0.10;0.10;;;3.00;99.90;;;;;;5089617;28;20631;-81
2022/01/21 09:58:59;;;;;;;0.10;0.10;;;3.10;99.90;;;;;;5083728;28;20624;-81
2022/01/21 10:01:27;;;;;;;0.10;0.10;;;3.10;99.90;;;;;;5092795;28;20655;-81
2022/01/21 10:03:54;;;;;;;0.10;0.10;;;3.10;99.90;;;;;;5091783;28;20619;-81
2022/01/21 10:06:24;;;;;;;0.10;0.10;;;3.20;99.90;;;;;;5084491;28;20623;-81
2022/01/21 10:08:56;;;;;;;0.10;0.10;;;3.20;99.90;;;;;;5086476;28;20624;-80
2022/01/21 10:11:24;;;;;;;0.13;0.13;;;3.20;99.90;;;;;;5083088;28;20591;-80
2022/01/21 10:13:52;;;;;;;0.10;0.10;;;3.20;99.90;;;;;;5088976;28;20723;-80
2022/01/21 10:16:20;;;;;;;0.10;0.10;;;3.20;99.90;;;;;;5079124;28;20607;-80
2022/01/21 10:19:02;;;;;;;0.10;0.10;;;3.20;99.90;;;;;;5085559;28;20624;-80
2022/01/21 10:21:31;;;;;;;0.20;0.20;;;3.20;99.90;;;;;;5090085;28;20655;-80
2022/01/21 10:24:07;;;;;;;0.10;0.10;;;3.00;99.90;;;;;;5089877;28;20612;-80
2022/01/21 10:26:34;;;;;;;0.20;0.20;;;3.00;99.90;;;;;;5087922;28;20643;-81
2022/01/21 10:29:02;;;;;;;0.10;0.10;;;3.00;99.90;;;;;;5105517;27;20620;-80
2022/01/21 10:31:30;;;;;;;0.10;0.10;;;3.00;99.90;;;;;;5082257;28;20685;-80
2022/01/21 10:34:04;;;;;;;0.13;0.13;;;3.00;99.90;;;;;;5082898;28;20636;-80
2022/01/21 10:36:34;;;;;;;0.10;0.10;;;3.00;99.90;;;;;;5087769;28;21215;-80
2022/01/21 10:39:10;;;;;;;0.17;0.17;;;3.10;99.90;;;;;;5087618;28;20620;-80
2022/01/21 10:41:41;;;;;;;0.10;0.10;;;3.10;99.90;;;;;;5089587;28;20678;-81
2022/01/21 10:44:10;;;;;;;0.10;0.10;;;3.10;99.90;;;;;;5079238;28;20748;-80
2022/01/21 10:46:39;;;;;;;0.10;0.10;;;3.10;99.90;;;;;;5089459;28;20796;-80
2022/01/21 10:49:09;;;;;;;0.10;0.10;;;3.20;99.90;;;;;;5087809;28;20627;-80
2022/01/21 10:51:38;;;;;;;0.20;0.20;;;3.30;99.90;;;;;;5095637;28;20627;-80
2022/01/21 10:54:15;;;;;;;0.10;0.10;;;3.40;99.90;;;;;;5084242;28;20632;-80
2022/01/21 10:57:02;;;;;;;0.10;0.10;;;;;;;;;;5087001;28;20725;-80
2022/01/21 10:59:49;;;;;;;0.10;0.10;;;3.50;99.90;;;;;;5088571;28;20626;-80
2022/01/21 11:02:27;;;;;;;0.10;0.10;;;3.90;99.90;;;;;;5090831;28;20979;-80
2022/01/21 11:04:54;;;;;;;0.20;0.20;;;4.00;99.90;;;;;;5090424;28;20639;-81
2022/01/21 11:07:43;;;;;;;0.10;0.10;;;;;;;;;;5083526;28;20634;-81
2022/01/21 11:10:10;;;;;;;0.13;0.13;;;;;;;;;;5087001;28;20646;-80
2022/01/21 11:12:39;;;;;;;0.10;0.10;;;;;;;;;;5089461;28;20742;-81
2022/01/21 11:15:06;;;;;;;0.20;0.20;;;4.10;99.90;;;;;;5090625;28;20663;-80
2022/01/21 11:17:36;;;;;;;0.10;0.10;;;4.90;99.90;;;;;;5082769;28;20631;-80
2022/01/21 11:20:06;;;;;;;0.10;0.10;;;4.90;99.90;;;;;;5083914;28;20640;-81
2022/01/21 11:22:52;;;;;;;0.10;0.10;;;4.90;99.90;;;;;;5081522;28;20616;-80
2022/01/21 11:25:39;;;;;;;0.10;0.10;;;4.80;99.90;;;;;;5082919;28;20720;-81
2022/01/21 11:28:08;;;;;;;0.10;0.10;;;4.80;99.90;;;;;;5084086;28;20635;-80
2022/01/21 11:30:35;;;;;;;0.20;0.20;;;4.60;99.90;;;;;;5074426;28;20715;-80
2022/01/21 11:33:03;;;;;;;0.10;0.10;;;4.50;99.90;;;;;;5076608;28;20642;-80
2022/01/21 11:35:30;;;;;;;0.10;0.10;;;4.40;99.90;;;;;;5082173;28;20673;-81
2022/01/21 11:37:59;;;;;;;0.10;0.10;;;4.30;99.90;;;;;;5086083;28;20966;-81
2022/01/21 11:40:26;;;;;;;0.10;0.10;;;4.20;99.90;;;;;;5085170;28;20653;-80
2022/01/21 11:42:54;;;;;;;0.10;0.10;;;4.20;99.90;;;;;;5072524;28;20607;-80
2022/01/21 11:45:43;;;;;;;0.20;0.20;;;4.10;99.90;;;;;;5080559;28;20669;-80
2022/01/21 11:50:56;;;;;;;0.10;0.10;;;4.00;99.90;;;;;;5082332;28;21198;-81
2022/01/21 11:53:44;;;;;;;0.10;0.10;;;3.90;99.90;;;;;;5082338;28;20710;-81
2022/01/21 11:56:30;;;;;;;0.10;0.10;;;4.00;99.90;;;;;;5087316;28;20751;-81
2022/01/21 11:59:06;;;;;;;0.10;0.10;;;4.00;99.90;;;;;;5080907;28;20623;-81
2022/01/21 12:01:39;;;;;;;0.10;0.10;;;4.00;99.90;;;;;;5080979;28;20662;-81
2022/01/21 12:04:06;;;;;;;0.10;0.10;;;4.00;99.90;;;;;;5090470;28;20630;-81
2022/01/21 12:06:34;;;;;;;0.10;0.10;;;4.00;99.90;;;;;;5085046;28;21289;-81
2022/01/21 12:09:03;;;;;;;0.10;0.10;;;4.00;99.90;;;;;;5083900;28;20607;-81
2022/01/21 12:11:35;;;;;;;0.10;0.10;;;3.90;99.90;;;;;;5084651;28;20681;-81
2022/01/21 12:14:06;;;;;;;0.10;0.10;;;3.90;99.90;;;;;;5081615;28;20631;-81
2022/01/21 12:16:53;;;;;;;0.10;0.10;;;3.80;99.90;;;;;;5083221;28;20620;-81
2022/01/21 12:19:32;;;;;;;0.20;0.20;;;3.60;99.90;;;;;;5079151;28;20687;-81
2022/01/21 12:22:12;;;;;;;0.10;0.10;;;3.50;99.90;;;;;;5078557;28;20651;-81
2022/01/21 12:25:04;;;;;;;0.13;0.13;;;3.50;99.90;;;;;;5087621;28;20657;-81
2022/01/21 12:27:32;;;;;;;0.10;0.10;;;3.40;99.90;;;;;;5091379;28;20626;-80
2022/01/21 12:30:26;;;;;;;0.10;0.10;;;3.30;99.90;;;;;;5087724;28;21081;-80
2022/01/21 12:32:58;;;;;;;0.10;0.10;;;3.30;99.90;;;;;;5092088;28;20619;-81
2022/01/21 12:35:46;;;;;;;0.10;0.10;;;3.40;99.90;;;;;;5089130;28;20704;-81
2022/01/21 12:41:33;;;;;;;0.20;0.20;;;3.40;99.90;;;;;;5092565;28;20805;-81
2022/01/21 12:44:01;;;;;;;0.20;0.20;;;3.50;99.90;;;;;;5083900;28;20616;-80
2022/01/21 12:46:34;;;;;;;0.10;0.10;;;3.50;99.90;;;;;;5091349;28;20614;-80
2022/01/21 12:49:34;;;;;;;0.10;0.10;;;3.50;99.90;;;;;;5088403;28;20604;-80
2022/01/21 12:52:14;;;;;;;0.10;0.10;;;3.50;99.90;;;;;;5091286;28;20608;-81
2022/01/21 12:57:28;;;;;;;0.10;0.10;;;3.60;99.90;;;;;;5074267;28;20623;-80
2022/01/21 12:59:56;;;;;;;0.10;0.10;;;3.60;99.90;;;;;;5084105;27;20624;-79
2022/01/21 13:02:25;;;;;;;0.10;0.10;;;3.70;99.90;;;;;;5079523;28;20654;-79
2022/01/21 13:05:02;;;;;;;0.10;0.10;;;3.70;99.90;;;;;;5083387;28;20646;-79
2022/01/21 13:07:41;;;;;;;0.10;0.10;;;3.70;99.90;;;;;;5076625;28;20610;-80
2022/01/21 13:10:21;;;;;;;0.10;0.10;;;3.80;99.90;;;;;;5081323;28;20620;-80
2022/01/21 13:13:13;;;;;;;0.10;0.10;;;3.80;99.90;;;;;;5085066;28;20619;-80
2022/01/21 13:15:43;;;;;;;0.10;0.10;;;3.80;99.90;;;;;;5070157;28;20644;-81
2022/01/21 13:18:12;;;;;;;0.10;0.10;;;3.90;99.90;;;;;;5082381;28;20631;-80
2022/01/21 13:20:43;;;;;;;0.10;0.10;;;3.90;99.90;;;;;;5075450;28;20693;-81
2022/01/21 13:23:12;;;;;;;0.10;0.10;;;3.90;99.90;;;;;;5077445;28;20654;-79
2022/01/21 13:25:39;;;;;;;0.10;0.10;;;3.80;99.90;;;;;;5078971;28;20651;-77
2022/01/21 13:28:07;;;;;;;0.10;0.10;;;3.80;99.90;;;;;;5074027;28;20625;-77
2022/01/21 13:30:36;;;;;;;0.10;0.10;;;3.80;99.90;;;;;;5075852;28;20627;-77
2022/01/21 13:33:05;;;;;;;0.10;0.10;;;3.70;99.90;;;;;;5071416;28;20644;-77
2022/01/21 13:35:34;;;;;;;0.10;0.10;;;3.70;99.90;;;;;;5079230;28;20648;-77
2022/01/21 13:38:06;;;;;;;0.10;0.10;;;3.70;99.90;;;;;;5077987;28;20616;-79
2022/01/21 13:40:37;;;;;;;0.10;0.10;;;3.60;99.90;;;;;;5082692;28;20652;-78
2022/01/21 13:43:15;;;;;;;0.10;0.10;;;3.60;99.90;;;;;;5089321;28;20630;-78
2022/01/21 13:45:53;;;;;;;0.10;0.10;;;3.60;99.90;;;;;;5081685;28;20655;-78
2022/01/21 13:48:21;;;;;;;0.10;0.10;;;3.60;99.90;;;;;;5085176;28;20606;-78
2022/01/21 13:50:48;;;;;;;0.10;0.10;;;3.50;99.90;;;;;;5084665;28;20655;-79
2022/01/21 13:53:17;;;;;;;0.10;0.10;;;3.50;99.90;;;;;;5078278;28;20623;-78
2022/01/21 13:55:46;;;;;;;0.10;0.10;;;3.50;99.90;;;;;;5077617;28;20675;-78
2022/01/21 13:58:16;;;;;;;0.10;0.10;;;3.50;99.90;;;;;;5080236;28;21351;-78
2022/01/21 14:00:46;;;;;;;0.10;0.10;;;3.50;99.90;;;;;;5080755;27;21146;-78
2022/01/21 14:03:37;;;;;;;0.10;0.10;;;3.40;99.90;;;;;;5072166;28;20661;-79